MOOI WEER BOXTEL

Weerstation in Boxtel

Actuele weerinformatie en voorspellingen


Onweer radar Meer informatie blitzortung!


Regen radar Meer informatie rain snow radar


Meer informatie

Template documentation
and downloads

Weblog Hans on Experience

Profiel Hans Mestrum



Het weer levert geen direct gevaar op.    Er zijn geen waarschuwingen afgegeven.

METAR rapporten vliegvelden

   
EHEH - Eindhoven
Gewijzigd: 14-12-2018 14:25
Bewolking  
Bewolking  
   Wind: ONO 14.8 km/h
Wind: ONO 14.8 km/h
Temperatuur: 2°C
Voelt als: -2°C
Dauwpunt: -1°C
Vochtigheid: 81%
Barometer: 1023 hPa
Bewolking: Bewolking
Zicht: meer dan 10 km
Bewolking: Bewolking 3800 ft
EHEH 141325Z AUTO 06008KT 020V090 9999 OVC038 02/M01 Q1023 BLU 05008KT 9999 FEW010 BKN040 TEMPO SCT010 BKN040
EHVK - Volkel
Gewijzigd: 14-12-2018 14:25
Bewolking  
Bewolking  
   Wind: NO 13 km/h
Wind: NO 13 km/h
Temperatuur: 1°C
Voelt als: -3°C
Dauwpunt: -1°C
Vochtigheid: 87%
Barometer: 1023 hPa
Bewolking: Bewolking
Zicht: meer dan 10 km
Bewolking: Bewolking 3700 ft
EHVK 141325Z AUTO 05007KT 9999 OVC037 01/M01 Q1023 BLU 06008KT 9999 BKN036
EBAW - Antwerpen
Gewijzigd: 14-12-2018 14:20
Grotendeels bewolkt  
Grotendeels bewolkt  
   Wind: ONO 9.3 km/h
Wind: ONO 9.3 km/h
Temperatuur: 2°C
Voelt als: -1°C
Dauwpunt: 0°C
Vochtigheid: 87%
Barometer: 1023 hPa
Bewolking: Grotendeels bewolkt
Zicht: 8 km
Bewolking: Grotendeels bewolkt 4000 ft
EBAW 141320Z 06005KT 8000 BKN040 02/M00 Q1023 NOSIG
EHBK - Maastricht
Gewijzigd: 14-12-2018 14:25
Bewolking  
Bewolking  
   Wind: Oosten 11.1 km/h
Wind: Oosten 11.1 km/h
Temperatuur: 1°C
Voelt als: -2°C
Dauwpunt: -4°C
Vochtigheid: 70%
Barometer: 1022 hPa
Bewolking: Bewolking
Zicht: meer dan 10 km
Bewolking: Licht bewolkt 2800 ft,
Grotendeels bewolkt 3200 ft,
Bewolking 3600 ft
EHBK 141325Z AUTO 08006KT 050V110 9999 FEW028 BKN032 OVC036 01/M04 Q1022 NOSIG
ELLX - Luxemburg
Gewijzigd: 14-12-2018 14:20
Grotendeels bewolkt  
Grotendeels bewolkt  
   Wind: ONO 13 km/h
Wind: ONO 13 km/h
Temperatuur: -1°C
Voelt als: -5°C
Dauwpunt: -6°C
Vochtigheid: 69%
Barometer: 1019 hPa
Bewolking: Grotendeels bewolkt
Zicht: meer dan 10 km
Bewolking: Grotendeels bewolkt 2500 ft
ELLX 141320Z 06007KT 040V100 9999 BKN025 M01/M06 Q1019 R06/19//59 NOSIG
 

Script ontwikkeld door  Saratoga-weather.org Aangepast voor de template door  Weerstation Leuven

U vindt ons ook hier:

Het Weer Aktueel

UK Metoffice

European Weather Network

Weather Underground

AWEKAS

Citizen Weather Observer Program (CWOP)

HAMweather, WeatherForYou, PWS Weather

Apparatuur in gebruik:

Weerstation
Davis Vue ISS

Weerprogramma
Meteobridge

Weercomputer
Asus WL -330N3G

Webleverancier
Weerhuisje.nl

Davis Vue ISS

Meteobridge

Asus WL -330N3G

Weerhuisje.nl